Badger Spring Valley, Nevada Weather observations

Data are for 10 minute period ending at time listed.
 Day   Time   Solar   Ave.   Ave.  Ave.  Vector  Max.   Baro.   Total    
  of    of     Rad.   Air    Rel.  Wind   Wind   Wind  Press.  Precip.   
Year   Day            Temp.  Hum.  Speed  Dir.   Gust                    
2016   (PST)  Kw/m2    F      %     mph   deg.    mph    mb.     in.     
-------------------------------------------------------------------------
 181   11:20   1.07   90.5    16    8.1   196    15.9   833.5    0.00 
 181   11:30   1.28   91.2    15   12.7   166    20.0   833.3    0.00 
 181   11:40   0.96   90.5    16    7.4   147    17.8   833.3    0.00 
 181   11:50   1.08   91.0    15    9.1   153    17.6   833.1    0.00 
 181   12:00   0.72   91.3    15    8.7   218    15.3   833.0    0.00 
 181   12:10   0.29   88.9    16   11.0   164    21.3   833.0    0.00 
 181   12:20   0.28   88.3    16   10.9   176    18.2   833.0    0.00 
 181   12:30   0.22   87.8    16    9.3   227    14.8   833.0    0.00 
 181   12:40   0.17   87.3    17    9.4   260    14.3   832.9    0.00 
 181   12:50   0.13   86.9    17   10.2   273    16.4   832.9    0.00 
 181   13:00   0.11   85.4    19   15.3   272    24.1   833.0    0.00 
 181   13:10   0.11   84.0    21   14.9   262    23.5   833.1    0.00 
 181   13:20   0.10   84.0    22   11.7   275    16.9   833.1    0.00 
 181   13:30   0.16   84.0    22    7.1   286    15.6   833.2    0.00 
 181   13:40   0.35   85.3    20    4.7   288     8.4   833.0    0.00 
 181   13:50   0.31   86.6    17    4.7   314     9.7   832.9    0.00 
 181   14:00   0.14   85.4    20   13.6   282    24.8   833.2    0.00 
 181   14:10   0.09   81.2    26   22.3   277    34.1   833.4    0.00 
 181   14:20   0.08   79.4    28   19.3   302    36.5   833.5    0.00 
 181   14:30   0.04   77.2    35   16.2   301    26.4   833.8    0.00 
 181   14:40   0.04   74.6    40   16.3   306    27.7   833.6    0.00 
 181   14:50   0.05   76.4    33   19.5   306    29.9   833.5    0.00 
 181   15:00   0.05   78.0    28   11.7   336    20.2   833.3    0.00 
 181   15:10   0.07   79.7    23    9.1   321    18.9   833.0    0.00 
 181   15:20   0.11   81.2    21    6.8   281    13.6   832.9    0.00 
 181   15:30   0.16   81.0    22    6.1   282     9.5   832.9    0.00 
 181   15:40   0.26   81.9    22    5.9   290    10.7   833.0    0.00 
 181   15:50   0.33   83.2    20    9.0   288    14.9   832.9    0.00 
 181   16:00   0.29   83.8    19   12.8   265    21.9   832.8    0.00 
 181   16:10   0.24   83.6    19   14.8   264    26.3   832.7    0.00 
 181   16:20   0.18   82.7    20   14.2   253    19.1   832.5    0.00 
 181   16:30   0.16   82.3    20   14.4   233    21.9   832.5    0.00 
 181   16:40   0.14   82.9    19   10.9   214    19.7   832.2    0.00 
 181   16:50   0.12   83.3    19    8.9   190    14.4   832.2    0.00 
 181   17:00   0.13   83.3    19    3.2   226     6.6   832.1    0.00 
 181   17:10   0.13   83.8    18    0.5   198     2.1   832.2    0.00 
 181   17:20   0.13   83.9    19    3.1    26     9.1   832.2    0.00 
 181   17:30   0.10   82.7    20    8.3     6    10.6   832.2    0.00 
 181   17:40   0.07   82.3    21   11.0   356    15.6   832.1    0.00 
 181   17:50   0.05   82.0    21   14.0   342    25.3   832.3    0.00 
 181   18:00   0.07   81.2    23   19.1   317    28.1   832.5    0.00 
 181   18:10   0.09   80.6    25   11.7   328    24.3   832.6    0.00 
 181   18:20   0.08   80.2    26   11.3   344    23.0   832.7    0.00 
 181   18:30   0.04   79.9    27   14.9     2    21.7   832.8    0.00 
 181   18:40   0.02   79.5    27   14.4   350    21.0   832.9    0.00 
 181   18:50   0.01   79.1    27   14.9   349    22.4   833.0    0.00 
 181   19:00   0.01   78.8    27   12.3   349    20.2   833.1    0.00 
 181   19:10   0.00   78.4    28   10.8   345    18.5   833.1    0.00 
 181   19:20   0.00   78.0    28   10.3   348    15.1   833.0    0.00 
 181   19:30   0.00   77.9    28    8.6   325    13.2   833.1    0.00 
 181   19:40   0.00   77.9    28    9.3   334    17.2   833.1    0.00 
 181   19:50   0.00   79.2    24   15.5   318    23.5   833.1    0.00 
 181   20:00   0.00   79.0    25   18.3   315    28.4   833.1    0.00 
 181   20:10   0.00   78.7    25   13.5   314    21.6   833.0    0.00 
 181   20:20   0.00   79.5    24   22.6   321    31.0   833.0    0.00 
 181   20:30   0.00   79.9    23   19.3   319    28.9   833.2    0.00 
 181   20:40   0.00   80.2    22   17.5   322    25.6   833.3    0.00 
 181   20:50   0.00   80.2    22   16.0   323    25.5   833.4    0.00 
 181   21:00   0.00   79.3    23    9.6   346    20.5   833.7    0.00 
 181   21:10   0.00   78.0    25    6.0    16    15.1   833.7    0.00 
 181   21:20   0.00   77.6    25    9.9   351    15.6   833.5    0.00 
 181   21:30   0.00   76.7    26    8.4   346    12.5   833.3    0.00 
 181   21:40   0.00   76.0    26    8.8   355    13.2   833.3    0.00 
 181   21:50   0.00   76.0    26    3.0     5     7.4   833.4    0.00 
 181   22:00   0.00   76.0    27    3.8   359     8.9   833.4    0.00 
 181   22:10   0.00   75.3    27    6.2   356    11.4   833.4    0.00 
 181   22:20   0.00   75.0    28    6.6    16     9.9   833.3    0.00 
 181   22:30   0.00   74.9    30    5.9    30    11.0   833.3    0.00 
 181   22:40   0.00   74.6    31    7.3    26    12.6   833.3    0.00 
 181   22:50   0.00   74.1    32    8.8    23    15.5   833.2    0.00 
 181   23:00   0.00   73.9    33    8.3    10    13.5   833.2    0.00 
 181   23:10   0.00   73.3    34    6.9   332    11.2   833.2    0.00 
 181   23:20   0.00   72.7    34    7.0   341     9.5   833.1    0.00 
 181   23:30   0.00   72.8    34    6.7   345    11.0   833.2    0.00 
 181   23:40   0.00   72.4    35    6.5   343     9.1   833.2    0.00 
 181   23:50   0.00   72.6    34    5.8   341     8.5   833.1    0.00 
 182    0:00   0.00   72.6    34    6.1   348     7.7   833.1    0.00 
 182    0:10   0.00   71.9    35    5.8   340     7.2   833.0    0.00 
 182    0:20   0.00   71.2    36    6.1   343     7.2   833.0    0.00 
 182    0:30   0.00   70.8    36    5.8   347     7.7   832.9    0.00 
 182    0:40   0.00   71.7    35    4.9    12     6.6   832.7    0.00 
 182    0:50   0.00   71.6    35    3.6    12     6.7   832.6    0.00 
 182    1:00   0.00   71.5    35    4.3   306     7.0   832.5    0.00 
 182    1:10   0.00   70.7    36    4.5   299     6.6   832.5    0.00 
 182    1:20   0.00   71.1    35    1.8   334     3.0   832.4    0.00 
 182    1:30   0.00   70.1    37    1.9   311     3.4   832.4    0.00 
 182    1:40   0.00   70.0    36    1.9   330     3.7   832.4    0.00 
 182    1:50   0.00   69.4    38    2.5   303     3.9   832.4    0.00 
 182    2:00   0.00   69.5    37    3.7   276     4.9   832.4    0.00 
 182    2:10   0.00   70.1    36    3.4   249     4.7   832.4    0.00 
 182    2:20   0.00   70.0    37    2.7   251     4.2   832.4    0.00 
 182    2:30   0.00   70.9    36    2.6   248     5.1   832.3    0.00 
 182    2:40   0.00   70.4    38    2.5   232     4.5   832.2    0.00 
 182    2:50   0.00   70.2    38    2.0   238     4.2   832.2    0.00 
 182    3:00   0.00   70.7    37    5.0   282     7.5   832.1    0.00 
 182    3:10   0.00   70.6    38    5.5   289     8.0   832.1    0.00 
 182    3:20   0.00   71.5    36    2.8   290     4.7   832.2    0.00 
 182    3:30   0.00   72.2    35    3.3   273     6.0   832.2    0.00 
 182    3:40   0.00   72.6    35    3.7   269     6.3   832.3    0.00 
 182    3:50   0.00   72.1    36    4.8   279     6.4   832.3    0.00 
 182    4:00   0.00   71.6    36    3.8   278     4.8   832.3    0.00 
 182    4:10   0.00   71.5    36    3.8   280     6.2   832.4    0.00 
 182    4:20   0.00   70.8    38    5.6   291     7.6   832.4    0.00 
 182    4:30   0.00   70.0    39    4.3   290     5.6   832.5    0.00 
 182    4:40   0.01   69.7    39    5.5   288     7.2   832.6    0.00 
 182    4:50   0.03   69.9    39    5.3   285     6.4   832.6    0.00 
 182    5:00   0.06   69.7    40    5.1   289     6.4   832.7    0.00 
 182    5:10   0.11   70.5    39    3.4   313     4.6   832.7    0.00 
 182    5:20   0.15   73.0    36    1.8   314     2.9   832.7    0.00 
 182    5:30   0.19   75.9    32    0.3   308     1.5   832.8    0.00 
 182    5:40   0.22   78.3    30    1.3    86     3.3   832.9    0.00 
 182    5:50   0.15   77.1    31    2.6    79     4.1   832.9    0.00 
 182    6:00   0.13   75.7    32    2.5    74     4.3   832.9    0.00 
 182    6:10   0.13   75.8    32    0.2   122     1.3   832.9    0.00 
 182    6:20   0.14   76.5    32    0.3    94     1.4   833.0    0.00 
 182    6:30   0.14   76.6    32    0.6    44     1.6   833.1    0.00 
 182    6:40   0.13   76.6    32    0.2    37     0.7   833.2    0.00 
 182    6:50   0.11   76.4    32    1.0    59     2.2   833.3    0.00 
 182    7:00   0.12   76.3    33    0.9    79     2.6   833.4    0.00 
 182    7:10   0.16   76.1    33    4.1    97     7.7   833.6    0.00 
 182    7:20   0.17   75.5    34    4.6    74     6.4   833.7    0.00 
 182    7:30   0.19   75.6    33    5.1   114     7.4   833.7    0.00 
 182    7:40   0.17   75.5    33    6.1   129     7.5   833.8    0.00 
 182    7:50   0.22   75.4    34    5.9   143     9.4   833.9    0.00 
 182    8:00   0.35   75.6    34    4.2   134     6.1   833.9    0.00 
 182    8:10   0.37   76.6    33    5.1   127     9.6   834.0    0.00 
 182    8:20   0.36   76.2    34    6.4   127     9.4   834.0    0.00 
 182    8:30   0.52   76.9    33    5.3   135     7.9   834.0    0.00 
 182    8:40   0.36   76.9    33    4.3   123     7.3   834.0    0.00 
 182    8:50   0.34   76.8    33    6.1   119    10.4   834.1    0.00 
 182    9:00   0.36   76.4    34    4.5   139     7.1   834.1    0.00 
 182    9:10   0.71   77.8    32    6.9   161    14.8   834.1    0.00 
 182    9:20   0.96   79.9    31    8.4   143    13.7   834.0    0.00 
 182    9:30   0.90   80.3    30   10.2   145    18.3   834.0    0.00 
 182    9:40   1.01   80.3    30   11.2   145    17.8   833.9    0.00 
 182    9:50   0.72   80.5    30   12.2   144    18.7   833.9    0.00 
 182   10:00   0.48   79.4    32   10.7   150    16.5   834.0    0.00 
 182   10:10   0.52   79.0    32   10.5   146    17.2   834.0    0.00 
 182   10:20   0.55   79.4    32    9.2   145    13.7   834.0    0.00 
 182   10:30   100.00   80.5    31    9.1   142    17.2   834.0    0.00 
 182   10:40   0.53   80.9    30    9.2   137    18.5   834.0    0.00 
 182   10:50   0.55   80.6    30    7.5   162    12.8   833.9    0.00 
 182   11:00   0.55   80.5    30    7.2   164    11.7   833.8    0.00 
 182   11:10   100.00   81.0    29    6.9   141    13.0   833.7    0.00 

Return to Badger Spring Valley graphs page.


Western Regional Climate Center,wrcc@dri.edu